sensor_id;sensor_type;location;lat;lon;timestamp;pressure;altitude;pressure_sealevel;temperature;humidity
80938;BME280;70395;51.382;7.074;2024-03-23T00:54:03;99805.94;;;10.13;62.49
80938;BME280;70395;51.382;7.074;2024-03-23T00:56:29;99793.56;;;10.12;62.52
80938;BME280;70395;51.382;7.074;2024-03-23T00:58:55;99789.19;;;10.11;62.51
80938;BME280;70395;51.382;7.074;2024-03-23T01:01:21;99789.88;;;10.13;62.68
80938;BME280;70395;51.382;7.074;2024-03-23T01:03:47;99789.19;;;10.11;62.70
80938;BME280;70395;51.382;7.074;2024-03-23T01:06:13;99789.50;;;10.08;62.78
80938;BME280;70395;51.382;7.074;2024-03-23T01:08:38;99790.50;;;10.07;62.76
80938;BME280;70395;51.382;7.074;2024-03-23T01:11:04;99781.94;;;10.03;62.82
80938;BME280;70395;51.382;7.074;2024-03-23T01:13:30;99782.78;;;10.04;62.66
80938;BME280;70395;51.382;7.074;2024-03-23T01:15:57;99784.78;;;10.02;62.83
80938;BME280;70395;51.382;7.074;2024-03-23T01:18:24;99776.06;;;10.00;62.77
80938;BME280;70395;51.382;7.074;2024-03-23T01:20:52;99780.72;;;9.98;62.60
80938;BME280;70395;51.382;7.074;2024-03-23T01:23:17;99779.19;;;9.95;62.46
80938;BME280;70395;51.382;7.074;2024-03-23T01:25:43;99767.09;;;9.91;62.41
80938;BME280;70395;51.382;7.074;2024-03-23T01:28:09;99772.78;;;9.88;62.63
80938;BME280;70395;51.382;7.074;2024-03-23T01:30:35;99756.00;;;9.86;62.32
80938;BME280;70395;51.382;7.074;2024-03-23T01:33:02;99758.00;;;9.84;62.31
80938;BME280;70395;51.382;7.074;2024-03-23T01:35:28;99768.03;;;9.82;62.44
80938;BME280;70395;51.382;7.074;2024-03-23T01:37:54;99753.09;;;9.79;62.19
80938;BME280;70395;51.382;7.074;2024-03-23T01:40:20;99766.66;;;9.77;62.50
80938;BME280;70395;51.382;7.074;2024-03-23T01:43:04;99775.00;;;9.74;62.40
80938;BME280;70395;51.382;7.074;2024-03-23T01:45:31;99781.34;;;9.73;62.32
80938;BME280;70395;51.382;7.074;2024-03-23T01:47:58;99777.97;;;9.71;62.47
80938;BME280;70395;51.382;7.074;2024-03-23T01:50:25;99768.72;;;9.65;62.18
80938;BME280;70395;51.382;7.074;2024-03-23T01:52:51;99762.16;;;9.60;62.34
80938;BME280;70395;51.382;7.074;2024-03-23T01:55:17;99754.56;;;9.55;61.88
80938;BME280;70395;51.382;7.074;2024-03-23T01:57:43;99741.81;;;9.49;61.94
80938;BME280;70395;51.382;7.074;2024-03-23T02:00:10;99751.44;;;9.41;61.93
80938;BME280;70395;51.382;7.074;2024-03-23T02:02:44;99764.72;;;9.33;61.90
80938;BME280;70395;51.382;7.074;2024-03-23T02:05:12;99760.97;;;9.26;62.38
80938;BME280;70395;51.382;7.074;2024-03-23T02:07:42;99754.38;;;9.20;61.76
80938;BME280;70395;51.382;7.074;2024-03-23T02:10:10;99748.63;;;9.15;61.74
80938;BME280;70395;51.382;7.074;2024-03-23T02:12:37;99748.41;;;9.08;61.83
80938;BME280;70395;51.382;7.074;2024-03-23T02:15:03;99735.31;;;9.05;61.86
80938;BME280;70395;51.382;7.074;2024-03-23T02:17:32;99723.94;;;9.03;61.98
80938;BME280;70395;51.382;7.074;2024-03-23T02:19:59;99716.22;;;8.99;62.04
80938;BME280;70395;51.382;7.074;2024-03-23T02:22:35;99703.16;;;8.96;62.20
80938;BME280;70395;51.382;7.074;2024-03-23T02:28:32;99712.31;;;8.94;62.02
80938;BME280;70395;51.382;7.074;2024-03-23T02:30:58;99718.63;;;8.93;62.10
80938;BME280;70395;51.382;7.074;2024-03-23T02:33:26;99718.81;;;8.91;61.94
80938;BME280;70395;51.382;7.074;2024-03-23T02:35:56;99727.13;;;8.88;62.01
80938;BME280;70395;51.382;7.074;2024-03-23T02:38:23;99723.59;;;8.87;62.21
80938;BME280;70395;51.382;7.074;2024-03-23T02:40:49;99714.88;;;8.85;62.17
80938;BME280;70395;51.382;7.074;2024-03-23T02:43:14;99714.88;;;8.85;62.42
80938;BME280;70395;51.382;7.074;2024-03-23T02:45:40;99720.22;;;8.85;62.50
80938;BME280;70395;51.382;7.074;2024-03-23T02:48:06;99713.34;;;8.83;62.37
80938;BME280;70395;51.382;7.074;2024-03-23T02:50:32;99716.19;;;8.81;62.53
80938;BME280;70395;51.382;7.074;2024-03-23T02:52:58;99717.16;;;8.80;62.40
80938;BME280;70395;51.382;7.074;2024-03-23T02:55:24;99719.69;;;8.82;62.69
80938;BME280;70395;51.382;7.074;2024-03-23T02:57:49;99721.69;;;8.80;62.54
80938;BME280;70395;51.382;7.074;2024-03-23T03:00:15;99722.50;;;8.80;62.53
80938;BME280;70395;51.382;7.074;2024-03-23T03:02:41;99722.81;;;8.77;62.48
80938;BME280;70395;51.382;7.074;2024-03-23T03:05:07;99724.94;;;8.73;62.61
80938;BME280;70395;51.382;7.074;2024-03-23T03:07:34;99729.06;;;8.67;62.48
80938;BME280;70395;51.382;7.074;2024-03-23T03:10:00;99723.16;;;8.64;62.69
80938;BME280;70395;51.382;7.074;2024-03-23T03:12:26;99720.47;;;8.64;62.84
80938;BME280;70395;51.382;7.074;2024-03-23T03:14:52;99717.81;;;8.64;62.69
80938;BME280;70395;51.382;7.074;2024-03-23T03:17:18;99720.31;;;8.65;62.69
80938;BME280;70395;51.382;7.074;2024-03-23T03:19:45;99720.31;;;8.65;62.46
80938;BME280;70395;51.382;7.074;2024-03-23T03:22:11;99718.50;;;8.66;62.56
80938;BME280;70395;51.382;7.074;2024-03-23T03:24:36;99721.16;;;8.66;62.53
80938;BME280;70395;51.382;7.074;2024-03-23T03:27:02;99718.66;;;8.64;62.54
80938;BME280;70395;51.382;7.074;2024-03-23T03:29:29;99707.13;;;8.64;62.44
80938;BME280;70395;51.382;7.074;2024-03-23T03:32:02;99689.38;;;8.63;62.45
80938;BME280;70395;51.382;7.074;2024-03-23T03:34:28;99690.22;;;8.63;62.45
80938;BME280;70395;51.382;7.074;2024-03-23T03:36:54;99706.44;;;8.62;62.54
80938;BME280;70395;51.382;7.074;2024-03-23T03:39:20;99720.94;;;8.59;62.33
80938;BME280;70395;51.382;7.074;2024-03-23T03:41:48;99715.84;;;8.56;62.46
80938;BME280;70395;51.382;7.074;2024-03-23T03:44:14;99716.44;;;8.50;62.31
80938;BME280;70395;51.382;7.074;2024-03-23T03:46:40;99716.03;;;8.44;62.39
80938;BME280;70395;51.382;7.074;2024-03-23T03:49:06;99718.13;;;8.41;62.66
80938;BME280;70395;51.382;7.074;2024-03-23T03:51:32;99711.13;;;8.40;62.49
80938;BME280;70395;51.382;7.074;2024-03-23T03:53:57;99707.44;;;8.41;62.45
80938;BME280;70395;51.382;7.074;2024-03-23T03:56:23;99711.66;;;8.43;62.37
80938;BME280;70395;51.382;7.074;2024-03-23T03:58:49;99700.00;;;8.44;62.52
80938;BME280;70395;51.382;7.074;2024-03-23T04:01:15;99690.00;;;8.47;62.34
80938;BME280;70395;51.382;7.074;2024-03-23T04:03:40;99699.00;;;8.45;62.48
80938;BME280;70395;51.382;7.074;2024-03-23T04:06:18;99700.16;;;8.43;62.27
80938;BME280;70395;51.382;7.074;2024-03-23T04:08:44;99704.09;;;8.39;62.26
80938;BME280;70395;51.382;7.074;2024-03-23T04:11:10;99703.84;;;8.32;62.17
80938;BME280;70395;51.382;7.074;2024-03-23T04:13:36;99705.25;;;8.26;62.47
80938;BME280;70395;51.382;7.074;2024-03-23T04:16:02;99698.69;;;8.20;62.46
80938;BME280;70395;51.382;7.074;2024-03-23T04:18:27;99701.63;;;8.17;62.72
80938;BME280;70395;51.382;7.074;2024-03-23T04:20:53;99702.06;;;8.13;62.81
80938;BME280;70395;51.382;7.074;2024-03-23T04:23:19;99698.72;;;8.10;62.83
80938;BME280;70395;51.382;7.074;2024-03-23T04:25:45;99696.16;;;8.09;62.94
80938;BME280;70395;51.382;7.074;2024-03-23T04:28:11;99695.19;;;8.10;62.97
80938;BME280;70395;51.382;7.074;2024-03-23T04:30:37;99695.88;;;8.12;62.75
80938;BME280;70395;51.382;7.074;2024-03-23T04:33:04;99695.44;;;8.17;62.69
80938;BME280;70395;51.382;7.074;2024-03-23T04:35:30;99694.16;;;8.21;62.79
80938;BME280;70395;51.382;7.074;2024-03-23T04:37:56;99699.09;;;8.26;62.70
80938;BME280;70395;51.382;7.074;2024-03-23T04:40:25;99691.44;;;8.31;62.83
80938;BME280;70395;51.382;7.074;2024-03-23T04:42:51;99686.84;;;8.33;62.70
80938;BME280;70395;51.382;7.074;2024-03-23T04:45:16;99688.78;;;8.31;62.47
80938;BME280;70395;51.382;7.074;2024-03-23T04:47:42;99693.59;;;8.27;62.54
80938;BME280;70395;51.382;7.074;2024-03-23T04:50:09;99689.66;;;8.21;62.45
80938;BME280;70395;51.382;7.074;2024-03-23T04:52:36;99699.13;;;8.16;62.77
80938;BME280;70395;51.382;7.074;2024-03-23T04:55:02;99691.66;;;8.09;62.87
80938;BME280;70395;51.382;7.074;2024-03-23T04:57:28;99696.47;;;8.06;63.36
80938;BME280;70395;51.382;7.074;2024-03-23T04:59:54;99691.41;;;8.03;63.09
80938;BME280;70395;51.382;7.074;2024-03-23T05:02:19;99687.03;;;8.02;63.11
80938;BME280;70395;51.382;7.074;2024-03-23T05:04:45;99695.22;;;8.00;63.28
80938;BME280;70395;51.382;7.074;2024-03-23T05:07:11;99683.84;;;7.98;63.38
80938;BME280;70395;51.382;7.074;2024-03-23T05:09:37;99689.31;;;7.96;63.27
80938;BME280;70395;51.382;7.074;2024-03-23T05:12:03;99690.31;;;7.95;63.46
80938;BME280;70395;51.382;7.074;2024-03-23T05:14:29;99685.94;;;7.94;63.55
80938;BME280;70395;51.382;7.074;2024-03-23T05:16:55;99687.78;;;7.94;63.61
80938;BME280;70395;51.382;7.074;2024-03-23T05:19:21;99682.28;;;7.95;63.55
80938;BME280;70395;51.382;7.074;2024-03-23T05:21:48;99685.81;;;7.96;63.62
80938;BME280;70395;51.382;7.074;2024-03-23T05:24:13;99695.38;;;7.98;63.55
80938;BME280;70395;51.382;7.074;2024-03-23T05:26:39;99698.03;;;7.98;63.72
80938;BME280;70395;51.382;7.074;2024-03-23T05:29:05;99710.38;;;7.99;64.09
80938;BME280;70395;51.382;7.074;2024-03-23T05:31:32;99709.25;;;8.02;64.03
80938;BME280;70395;51.382;7.074;2024-03-23T05:33:58;99705.59;;;8.03;64.13
80938;BME280;70395;51.382;7.074;2024-03-23T05:36:24;99691.41;;;8.03;64.20
80938;BME280;70395;51.382;7.074;2024-03-23T05:38:50;99703.06;;;8.02;64.44
80938;BME280;70395;51.382;7.074;2024-03-23T05:41:16;99689.03;;;7.99;64.41
80938;BME280;70395;51.382;7.074;2024-03-23T05:43:42;99689.19;;;7.98;64.81
80938;BME280;70395;51.382;7.074;2024-03-23T05:46:08;99701.25;;;7.92;64.63
80938;BME280;70395;51.382;7.074;2024-03-23T05:48:34;99695.50;;;7.87;64.85
80938;BME280;70395;51.382;7.074;2024-03-23T05:51:00;99704.78;;;7.83;65.07
80938;BME280;70395;51.382;7.074;2024-03-23T05:53:26;99704.09;;;7.81;65.23
80938;BME280;70395;51.382;7.074;2024-03-23T05:56:02;99707.03;;;7.77;65.23
80938;BME280;70395;51.382;7.074;2024-03-23T05:58:32;99707.63;;;7.81;65.20
80938;BME280;70395;51.382;7.074;2024-03-23T06:01:00;99697.63;;;7.83;65.32
80938;BME280;70395;51.382;7.074;2024-03-23T06:03:30;99702.69;;;7.86;65.45
80938;BME280;70395;51.382;7.074;2024-03-23T06:05:56;99705.06;;;7.89;65.23
80938;BME280;70395;51.382;7.074;2024-03-23T06:08:22;99716.00;;;7.96;65.25
80938;BME280;70395;51.382;7.074;2024-03-23T06:10:49;99712.06;;;8.00;65.20
80938;BME280;70395;51.382;7.074;2024-03-23T06:13:16;99715.16;;;8.06;65.11
80938;BME280;70395;51.382;7.074;2024-03-23T06:15:42;99722.03;;;8.08;65.16
80938;BME280;70395;51.382;7.074;2024-03-23T06:18:08;99721.19;;;8.08;65.16
80938;BME280;70395;51.382;7.074;2024-03-23T06:20:34;99734.41;;;8.09;65.15
80938;BME280;70395;51.382;7.074;2024-03-23T06:23:03;99732.56;;;8.10;65.23
80938;BME280;70395;51.382;7.074;2024-03-23T06:25:29;99730.59;;;8.12;65.10
80938;BME280;70395;51.382;7.074;2024-03-23T06:27:56;99731.44;;;8.13;65.09
80938;BME280;70395;51.382;7.074;2024-03-23T06:30:24;99735.09;;;8.11;65.24
80938;BME280;70395;51.382;7.074;2024-03-23T06:32:50;99733.28;;;8.12;65.33
80938;BME280;70395;51.382;7.074;2024-03-23T06:35:15;99722.44;;;8.14;65.37
80938;BME280;70395;51.382;7.074;2024-03-23T06:37:41;99727.66;;;8.15;65.28
80938;BME280;70395;51.382;7.074;2024-03-23T06:40:08;99729.31;;;8.16;65.57
80938;BME280;70395;51.382;7.074;2024-03-23T06:42:36;99732.56;;;8.20;65.47
80938;BME280;70395;51.382;7.074;2024-03-23T06:45:03;99731.28;;;8.24;65.65
80938;BME280;70395;51.382;7.074;2024-03-23T06:47:30;99733.50;;;8.29;65.49
80938;BME280;70395;51.382;7.074;2024-03-23T06:49:56;99728.56;;;8.34;65.38
80938;BME280;70395;51.382;7.074;2024-03-23T06:52:22;99731.38;;;8.42;65.39
80938;BME280;70395;51.382;7.074;2024-03-23T06:54:48;99733.31;;;8.50;65.30
80938;BME280;70395;51.382;7.074;2024-03-23T06:57:14;99734.13;;;8.61;65.29
80938;BME280;70395;51.382;7.074;2024-03-23T06:59:40;99735.88;;;8.80;65.30
80938;BME280;70395;51.382;7.074;2024-03-23T07:02:06;99738.72;;;9.07;65.11
80938;BME280;70395;51.382;7.074;2024-03-23T07:04:36;99743.53;;;9.21;64.88
80938;BME280;70395;51.382;7.074;2024-03-23T07:07:02;99744.16;;;9.33;64.50
80938;BME280;70395;51.382;7.074;2024-03-23T07:09:29;99750.28;;;9.44;64.38
80938;BME280;70395;51.382;7.074;2024-03-23T07:11:58;99742.97;;;9.46;63.94
80938;BME280;70395;51.382;7.074;2024-03-23T07:14:24;99743.69;;;9.56;63.95
80938;BME280;70395;51.382;7.074;2024-03-23T07:16:51;99737.81;;;9.71;63.77
80938;BME280;70395;51.382;7.074;2024-03-23T07:19:17;99735.19;;;9.98;63.54
80938;BME280;70395;51.382;7.074;2024-03-23T07:21:44;99730.31;;;10.20;63.06
80938;BME280;70395;51.382;7.074;2024-03-23T07:24:10;99734.50;;;10.49;63.01
80938;BME280;70395;51.382;7.074;2024-03-23T07:26:36;99738.88;;;10.85;62.63
80938;BME280;70395;51.382;7.074;2024-03-23T07:29:05;99732.97;;;11.25;62.04
80938;BME280;70395;51.382;7.074;2024-03-23T07:31:31;99734.03;;;11.66;61.40
80938;BME280;70395;51.382;7.074;2024-03-23T07:33:57;99725.63;;;12.02;59.75
80938;BME280;70395;51.382;7.074;2024-03-23T07:36:23;99733.69;;;12.36;59.34
80938;BME280;70395;51.382;7.074;2024-03-23T07:38:48;99737.97;;;12.62;58.48
80938;BME280;70395;51.382;7.074;2024-03-23T07:41:20;99731.50;;;12.80;57.81
80938;BME280;70395;51.382;7.074;2024-03-23T07:43:47;99736.94;;;13.03;57.69
80938;BME280;70395;51.382;7.074;2024-03-23T07:46:15;99737.53;;;13.46;57.50
80938;BME280;70395;51.382;7.074;2024-03-23T07:48:42;99740.41;;;13.91;55.86
80938;BME280;70395;51.382;7.074;2024-03-23T07:51:17;99737.22;;;14.26;54.78
80938;BME280;70395;51.382;7.074;2024-03-23T07:53:44;99746.38;;;14.56;53.40
80938;BME280;70395;51.382;7.074;2024-03-23T07:56:15;99750.84;;;14.79;53.46
80938;BME280;70395;51.382;7.074;2024-03-23T07:58:42;99755.41;;;14.93;52.35
80938;BME280;70395;51.382;7.074;2024-03-23T08:01:14;99744.53;;;15.02;52.03
80938;BME280;70395;51.382;7.074;2024-03-23T08:03:43;99749.13;;;15.23;51.31
80938;BME280;70395;51.382;7.074;2024-03-23T08:06:13;99756.78;;;15.41;51.47
80938;BME280;70395;51.382;7.074;2024-03-23T08:08:42;99752.16;;;15.79;51.67
80938;BME280;70395;51.382;7.074;2024-03-23T08:11:08;99762.94;;;16.23;50.55
80938;BME280;70395;51.382;7.074;2024-03-23T08:13:36;99755.38;;;16.40;48.97
80938;BME280;70395;51.382;7.074;2024-03-23T08:16:03;99749.50;;;16.72;49.49
80938;BME280;70395;51.382;7.074;2024-03-23T08:18:30;99747.94;;;16.92;47.95
80938;BME280;70395;51.382;7.074;2024-03-23T08:21:04;99750.22;;;16.88;47.05
80938;BME280;70395;51.382;7.074;2024-03-23T08:23:34;99743.75;;;16.89;46.56
80938;BME280;70395;51.382;7.074;2024-03-23T08:26:10;99746.31;;;17.04;46.19
80938;BME280;70395;51.382;7.074;2024-03-23T08:28:36;99743.72;;;17.38;46.38
80938;BME280;70395;51.382;7.074;2024-03-23T08:31:07;99737.97;;;17.62;44.67
80938;BME280;70395;51.382;7.074;2024-03-23T08:33:34;99736.69;;;17.58;45.22
80938;BME280;70395;51.382;7.074;2024-03-23T08:36:06;99738.78;;;17.69;44.85
80938;BME280;70395;51.382;7.074;2024-03-23T08:38:32;99733.59;;;17.74;43.89
80938;BME280;70395;51.382;7.074;2024-03-23T08:41:07;99740.88;;;17.87;44.05
80938;BME280;70395;51.382;7.074;2024-03-23T08:43:37;99735.03;;;18.18;43.00
80938;BME280;70395;51.382;7.074;2024-03-23T08:46:08;99735.59;;;18.67;42.83
80938;BME280;70395;51.382;7.074;2024-03-23T08:48:43;99727.34;;;18.95;41.93
80938;BME280;70395;51.382;7.074;2024-03-23T08:51:11;99726.53;;;18.87;41.76
80938;BME280;70395;51.382;7.074;2024-03-23T08:53:38;99727.63;;;18.66;41.67
80938;BME280;70395;51.382;7.074;2024-03-23T08:56:06;99724.41;;;18.03;41.27
80938;BME280;70395;51.382;7.074;2024-03-23T08:58:33;99767.31;;;16.88;40.75
80938;BME280;70395;51.382;7.074;2024-03-23T09:03:33;99769.75;;;14.10;43.62
80938;BME280;70395;51.382;7.074;2024-03-23T09:06:01;99770.63;;;12.99;45.12
80938;BME280;70395;51.382;7.074;2024-03-23T09:08:28;99771.63;;;12.08;46.37
80938;BME280;70395;51.382;7.074;2024-03-23T09:10:53;99779.13;;;11.37;47.54
80938;BME280;70395;51.382;7.074;2024-03-23T09:13:20;99776.38;;;10.77;48.53
80938;BME280;70395;51.382;7.074;2024-03-23T09:15:49;99771.41;;;10.29;49.64
80938;BME280;70395;51.382;7.074;2024-03-23T09:18:15;99763.44;;;9.92;50.64
80938;BME280;70395;51.382;7.074;2024-03-23T09:20:42;99769.56;;;9.66;51.17
80938;BME280;70395;51.382;7.074;2024-03-23T09:23:08;99767.56;;;9.50;51.32
80938;BME280;70395;51.382;7.074;2024-03-23T09:25:38;99761.75;;;9.36;52.27
80938;BME280;70395;51.382;7.074;2024-03-23T09:28:09;99764.72;;;9.33;52.53
80938;BME280;70395;51.382;7.074;2024-03-23T09:30:36;99759.94;;;9.73;52.39
80938;BME280;70395;51.382;7.074;2024-03-23T09:33:11;99758.06;;;10.64;52.04
80938;BME280;70395;51.382;7.074;2024-03-23T09:35:42;99757.69;;;11.87;51.29
80938;BME280;70395;51.382;7.074;2024-03-23T09:38:10;99756.53;;;13.21;50.48
80938;BME280;70395;51.382;7.074;2024-03-23T09:40:42;99751.50;;;14.35;48.08
80938;BME280;70395;51.382;7.074;2024-03-23T09:43:09;99765.19;;;15.31;47.52
80938;BME280;70395;51.382;7.074;2024-03-23T09:45:39;99760.13;;;16.38;46.31
80938;BME280;70395;51.382;7.074;2024-03-23T09:48:08;99761.44;;;17.34;45.25
80938;BME280;70395;51.382;7.074;2024-03-23T09:50:44;99758.41;;;18.12;43.18
80938;BME280;70395;51.382;7.074;2024-03-23T09:53:14;99752.53;;;18.63;42.53
80938;BME280;70395;51.382;7.074;2024-03-23T09:55:42;99749.72;;;19.36;42.05
80938;BME280;70395;51.382;7.074;2024-03-23T09:58:12;99756.44;;;20.24;39.29
80938;BME280;70395;51.382;7.074;2024-03-23T10:00:38;99740.09;;;20.99;38.42
80938;BME280;70395;51.382;7.074;2024-03-23T10:03:05;99739.91;;;21.32;35.95
80938;BME280;70395;51.382;7.074;2024-03-23T10:05:33;99737.75;;;21.65;35.72
80938;BME280;70395;51.382;7.074;2024-03-23T10:10:40;99721.50;;;22.66;33.82
80938;BME280;70395;51.382;7.074;2024-03-23T10:13:06;99727.13;;;23.01;32.85
80938;BME280;70395;51.382;7.074;2024-03-23T10:15:35;99728.97;;;23.24;31.55
80938;BME280;70395;51.382;7.074;2024-03-23T10:18:20;99712.81;;;23.52;32.03
80938;BME280;70395;51.382;7.074;2024-03-23T10:21:09;99723.75;;;23.87;30.83
80938;BME280;70395;51.382;7.074;2024-03-23T10:23:38;99719.50;;;24.13;29.81
80938;BME280;70395;51.382;7.074;2024-03-23T10:29:01;99730.44;;;24.31;29.22
80938;BME280;70395;51.382;7.074;2024-03-23T10:31:28;99728.34;;;24.38;29.16
80938;BME280;70395;51.382;7.074;2024-03-23T10:33:54;99713.50;;;24.56;28.33
80938;BME280;70395;51.382;7.074;2024-03-23T10:36:22;99713.44;;;24.73;28.51
80938;BME280;70395;51.382;7.074;2024-03-23T10:38:50;99714.91;;;24.36;28.08
80938;BME280;70395;51.382;7.074;2024-03-23T10:41:18;99716.13;;;23.25;28.88
80938;BME280;70395;51.382;7.074;2024-03-23T10:43:46;99706.75;;;21.90;28.82
80938;BME280;70395;51.382;7.074;2024-03-23T10:46:12;99713.78;;;20.55;30.75
80938;BME280;70395;51.382;7.074;2024-03-23T10:48:38;99721.00;;;19.47;32.59
80938;BME280;70395;51.382;7.074;2024-03-23T10:51:08;99708.28;;;18.49;32.39
80938;BME280;70395;51.382;7.074;2024-03-23T10:53:35;99741.06;;;17.59;33.27
80938;BME280;70395;51.382;7.074;2024-03-23T10:56:04;99754.91;;;16.65;35.22
80938;BME280;70395;51.382;7.074;2024-03-23T10:58:47;99787.56;;;15.62;36.80
80938;BME280;70395;51.382;7.074;2024-03-23T11:01:15;99771.31;;;14.88;38.03
80938;BME280;70395;51.382;7.074;2024-03-23T11:03:52;99776.69;;;14.04;38.65
80938;BME280;70395;51.382;7.074;2024-03-23T11:06:36;99766.97;;;13.24;39.97
80938;BME280;70395;51.382;7.074;2024-03-23T11:09:02;99765.81;;;12.78;40.70
80938;BME280;70395;51.382;7.074;2024-03-23T11:11:28;99754.47;;;12.42;41.22
80938;BME280;70395;51.382;7.074;2024-03-23T11:13:59;99751.16;;;12.23;41.78
80938;BME280;70395;51.382;7.074;2024-03-23T11:16:29;99747.44;;;12.24;42.45
80938;BME280;70395;51.382;7.074;2024-03-23T11:19:39;99747.78;;;12.30;42.32
80938;BME280;70395;51.382;7.074;2024-03-23T11:22:06;99760.84;;;12.49;42.75
80938;BME280;70395;51.382;7.074;2024-03-23T11:24:32;99752.47;;;13.25;41.62
80938;BME280;70395;51.382;7.074;2024-03-23T11:26:58;99743.28;;;14.28;40.45
80938;BME280;70395;51.382;7.074;2024-03-23T11:29:29;99736.69;;;14.46;40.14
80938;BME280;70395;51.382;7.074;2024-03-23T11:31:56;99750.94;;;14.40;39.63
80938;BME280;70395;51.382;7.074;2024-03-23T11:34:22;99754.38;;;14.94;39.76
80938;BME280;70395;51.382;7.074;2024-03-23T11:36:48;99728.84;;;16.22;38.17
80938;BME280;70395;51.382;7.074;2024-03-23T11:39:20;99742.25;;;17.36;35.73
80938;BME280;70395;51.382;7.074;2024-03-23T11:41:54;99710.22;;;18.00;33.62
80938;BME280;70395;51.382;7.074;2024-03-23T11:44:22;99726.47;;;18.48;33.67
80938;BME280;70395;51.382;7.074;2024-03-23T11:46:49;99721.88;;;19.01;32.62
80938;BME280;70395;51.382;7.074;2024-03-23T11:49:26;99723.44;;;19.88;32.62
80938;BME280;70395;51.382;7.074;2024-03-23T11:51:53;99712.81;;;20.31;31.37
80938;BME280;70395;51.382;7.074;2024-03-23T11:54:24;99703.50;;;20.57;30.73
80938;BME280;70395;51.382;7.074;2024-03-23T11:57:00;99709.47;;;20.47;31.45
80938;BME280;70395;51.382;7.074;2024-03-23T11:59:33;99715.50;;;20.12;31.44
80938;BME280;70395;51.382;7.074;2024-03-23T12:02:00;99707.53;;;20.10;30.60
80938;BME280;70395;51.382;7.074;2024-03-23T12:04:29;99725.53;;;19.60;31.08
80938;BME280;70395;51.382;7.074;2024-03-23T12:07:18;99712.28;;;18.99;32.06
80938;BME280;70395;51.382;7.074;2024-03-23T12:09:45;99743.59;;;18.35;32.81
80938;BME280;70395;51.382;7.074;2024-03-23T12:12:18;99749.13;;;17.25;33.80
80938;BME280;70395;51.382;7.074;2024-03-23T12:14:45;99741.97;;;16.03;34.84
80938;BME280;70395;51.382;7.074;2024-03-23T12:17:26;99742.16;;;14.83;36.36
80938;BME280;70395;51.382;7.074;2024-03-23T12:19:52;99733.00;;;13.93;38.05
80938;BME280;70395;51.382;7.074;2024-03-23T12:22:22;99731.53;;;13.12;39.41
80938;BME280;70395;51.382;7.074;2024-03-23T12:24:48;99727.06;;;12.47;40.07
80938;BME280;70395;51.382;7.074;2024-03-23T12:27:15;99716.03;;;12.00;41.29
80938;BME280;70395;51.382;7.074;2024-03-23T12:29:41;99725.13;;;11.74;41.94
80938;BME280;70395;51.382;7.074;2024-03-23T12:32:09;99718.06;;;11.73;42.04
80938;BME280;70395;51.382;7.074;2024-03-23T12:34:35;99712.84;;;12.04;42.01
80938;BME280;70395;51.382;7.074;2024-03-23T12:37:00;99721.81;;;12.70;41.29
80938;BME280;70395;51.382;7.074;2024-03-23T12:39:27;99728.81;;;13.67;40.47
80938;BME280;70395;51.382;7.074;2024-03-23T12:41:53;99720.44;;;14.55;39.43
80938;BME280;70395;51.382;7.074;2024-03-23T12:44:19;99737.63;;;14.99;38.91
80938;BME280;70395;51.382;7.074;2024-03-23T12:46:45;99739.34;;;15.44;38.24
80938;BME280;70395;51.382;7.074;2024-03-23T12:49:11;99735.63;;;15.89;37.81
80938;BME280;70395;51.382;7.074;2024-03-23T12:51:37;99726.22;;;16.42;37.00
80938;BME280;70395;51.382;7.074;2024-03-23T12:54:03;99723.19;;;17.02;36.45
80938;BME280;70395;51.382;7.074;2024-03-23T12:56:30;99724.59;;;17.53;35.20
80938;BME280;70395;51.382;7.074;2024-03-23T12:58:58;99729.19;;;17.66;35.20
80938;BME280;70395;51.382;7.074;2024-03-23T13:01:25;99731.88;;;17.39;35.62
80938;BME280;70395;51.382;7.074;2024-03-23T13:03:51;99733.22;;;16.59;35.80
80938;BME280;70395;51.382;7.074;2024-03-23T13:06:18;99751.25;;;15.72;37.94
80938;BME280;70395;51.382;7.074;2024-03-23T13:08:45;99754.00;;;14.97;39.03
80938;BME280;70395;51.382;7.074;2024-03-23T13:11:12;99744.97;;;14.29;39.43
80938;BME280;70395;51.382;7.074;2024-03-23T13:13:40;99769.44;;;13.66;41.33
80938;BME280;70395;51.382;7.074;2024-03-23T13:16:08;99753.94;;;13.04;41.81
80938;BME280;70395;51.382;7.074;2024-03-23T13:18:34;99730.59;;;12.56;42.73
80938;BME280;70395;51.382;7.074;2024-03-23T13:21:00;99728.63;;;12.90;42.84
80938;BME280;70395;51.382;7.074;2024-03-23T13:23:26;99726.94;;;13.91;41.70
80938;BME280;70395;51.382;7.074;2024-03-23T13:25:56;99720.03;;;15.03;41.19
80938;BME280;70395;51.382;7.074;2024-03-23T13:28:22;99711.41;;;16.31;39.14
80938;BME280;70395;51.382;7.074;2024-03-23T13:30:56;99715.63;;;17.46;38.54
80938;BME280;70395;51.382;7.074;2024-03-23T13:33:22;99704.75;;;18.34;37.08
80938;BME280;70395;51.382;7.074;2024-03-23T13:35:51;99715.41;;;18.36;36.98
80938;BME280;70395;51.382;7.074;2024-03-23T13:38:18;99714.41;;;18.23;36.97
80938;BME280;70395;51.382;7.074;2024-03-23T13:40:59;99709.97;;;18.43;36.17
80938;BME280;70395;51.382;7.074;2024-03-23T13:43:27;99712.25;;;18.53;35.03
80938;BME280;70395;51.382;7.074;2024-03-23T13:45:56;99707.59;;;18.67;34.34
80938;BME280;70395;51.382;7.074;2024-03-23T13:48:25;99701.66;;;18.10;35.10
80938;BME280;70395;51.382;7.074;2024-03-23T13:53:24;99701.13;;;16.55;35.83
80938;BME280;70395;51.382;7.074;2024-03-23T13:55:50;99704.28;;;15.95;35.94
80938;BME280;70395;51.382;7.074;2024-03-23T13:58:16;99707.34;;;15.41;37.13
80938;BME280;70395;51.382;7.074;2024-03-23T14:00:42;99706.25;;;14.98;37.26
80938;BME280;70395;51.382;7.074;2024-03-23T14:03:13;99698.72;;;14.93;37.81
80938;BME280;70395;51.382;7.074;2024-03-23T14:05:40;99703.78;;;15.62;37.47
80938;BME280;70395;51.382;7.074;2024-03-23T14:08:08;99689.81;;;16.38;36.08
80938;BME280;70395;51.382;7.074;2024-03-23T14:10:35;99687.59;;;17.11;35.21
80938;BME280;70395;51.382;7.074;2024-03-23T14:13:04;99677.88;;;17.85;34.80
80938;BME280;70395;51.382;7.074;2024-03-23T14:15:30;99679.91;;;18.38;32.51